Time;durP1;ratioP1;P1;durP2;ratioP2;P2;SDS_P1;SDS_P2;PMS_P1;PMS_P2;Temp;Humidity;BMP_temperature;BMP_pressure;BME280_temperature;BME280_humidity;BME280_pressure;Samples;Min_cycle;Max_cycle;Signal;HPM_P1;HPM_P2
2023/10/08 00:02:27;;;;;;;11.73;3.83;;;26.20;99.90;;;;;;5065140;23;20049;-52
2023/10/08 00:04:57;;;;;;;11.48;4.28;;;26.30;99.90;;;;;;5058399;28;20052;-51
2023/10/08 00:07:27;;;;;;;12.65;4.38;;;26.20;99.90;;;;;;5054101;28;20021;-52
2023/10/08 00:09:53;;;;;;;9.15;3.75;;;26.20;99.90;;;;;;5045155;28;20021;-52
2023/10/08 00:12:20;;;;;;;7.38;3.50;;;26.20;99.90;;;;;;5054153;28;20032;-52
2023/10/08 00:14:53;;;;;;;11.65;4.15;;;26.20;99.90;;;;;;5043258;28;20013;-52
2023/10/08 00:17:19;;;;;;;11.02;4.75;;;26.20;99.90;;;;;;5035740;28;20037;-52
2023/10/08 00:19:45;;;;;;;14.45;5.00;;;26.30;99.90;;;;;;5053946;28;20461;-52
2023/10/08 00:22:13;;;;;;;9.43;4.18;;;26.30;99.90;;;;;;5053965;28;20025;-52
2023/10/08 00:24:42;;;;;;;13.75;3.80;;;26.30;99.90;;;;;;5047937;28;20059;-51
2023/10/08 00:27:08;;;;;;;6.43;3.90;;;26.30;99.90;;;;;;5054199;28;20025;-51
2023/10/08 00:29:39;;;;;;;10.35;4.47;;;26.30;99.90;;;;;;5053826;28;20028;-52
2023/10/08 00:32:11;;;;;;;9.52;4.82;;;26.30;99.90;;;;;;5053776;28;20108;-51
2023/10/08 00:34:41;;;;;;;8.05;3.97;;;26.30;99.90;;;;;;5065643;28;20025;-51
2023/10/08 00:37:09;;;;;;;6.38;3.60;;;26.30;99.90;;;;;;5053824;28;20029;-52
2023/10/08 00:39:37;;;;;;;8.55;3.60;;;26.30;99.90;;;;;;5053478;28;20108;-51
2023/10/08 00:42:07;;;;;;;12.07;4.57;;;26.30;99.90;;;;;;5052764;28;20028;-51
2023/10/08 00:44:39;;;;;;;10.32;4.53;;;26.20;99.90;;;;;;5066646;28;20381;-51
2023/10/08 00:47:06;;;;;;;8.43;3.45;;;26.20;99.90;;;;;;5053556;28;20025;-52
2023/10/08 00:57:36;;;;;;;11.70;4.20;;;26.10;99.90;;;;;;5038813;28;20127;-51
2023/10/08 01:02:45;;;;;;;14.77;4.38;;;26.10;99.90;;;;;;5051315;28;20056;-53
2023/10/08 01:05:25;;;;;;;10.82;4.20;;;26.10;99.90;;;;;;5052684;28;20021;-54
2023/10/08 01:07:55;;;;;;;11.32;4.53;;;26.00;99.90;;;;;;5035015;28;20052;-54
2023/10/08 01:10:24;;;;;;;7.78;3.55;;;26.00;99.90;;;;;;5052793;28;20108;-52
2023/10/08 01:13:05;;;;;;;10.93;4.07;;;26.00;99.90;;;;;;5052795;28;20025;-54
2023/10/08 01:15:35;;;;;;;10.77;4.18;;;25.90;99.90;;;;;;5037151;28;20025;-53
2023/10/08 01:18:15;;;;;;;7.82;4.15;;;25.90;99.90;;;;;;5035026;28;20159;-53
2023/10/08 01:23:13;;;;;;;11.38;4.82;;;25.90;99.90;;;;;;5052901;28;20385;-53
2023/10/08 01:25:41;;;;;;;7.65;4.68;;;25.90;99.90;;;;;;5052881;28;20410;-53
2023/10/08 01:30:54;;;;;;;9.10;3.80;;;25.80;99.90;;;;;;5052622;28;20027;-53
2023/10/08 01:33:22;;;;;;;11.15;3.95;;;25.80;99.90;;;;;;5052131;28;20017;-53
2023/10/08 01:35:51;;;;;;;11.57;3.83;;;25.80;99.90;;;;;;5052511;28;20124;-52
2023/10/08 01:38:23;;;;;;;7.68;3.90;;;25.80;99.90;;;;;;5052168;28;20062;-53
2023/10/08 01:40:51;;;;;;;8.88;3.92;;;25.80;99.90;;;;;;5034499;28;20025;-52
2023/10/08 01:43:18;;;;;;;12.35;4.50;;;25.80;99.90;;;;;;5051963;28;20033;-52
2023/10/08 01:45:48;;;;;;;13.50;4.43;;;25.80;99.90;;;;;;5052261;28;20100;-52
2023/10/08 01:48:27;;;;;;;8.93;3.80;;;25.80;99.90;;;;;;5033996;28;20025;-53
2023/10/08 01:51:01;;;;;;;13.50;3.88;;;25.80;99.90;;;;;;5034523;28;20115;-52
2023/10/08 01:53:27;;;;;;;8.50;3.53;;;25.70;99.90;;;;;;5051926;28;20048;-53
2023/10/08 01:55:53;;;;;;;6.68;3.80;;;25.70;99.90;;;;;;5052118;28;20025;-52
2023/10/08 01:58:20;;;;;;;6.75;3.47;;;25.70;99.90;;;;;;5051605;28;20481;-52
2023/10/08 02:00:46;;;;;;;10.48;4.18;;;25.70;99.90;;;;;;5034605;28;20405;-52
2023/10/08 02:03:17;;;;;;;12.85;3.80;;;25.60;99.90;;;;;;5051775;28;20029;-52
2023/10/08 02:05:45;;;;;;;7.32;3.95;;;25.60;99.90;;;;;;5051966;28;20020;-52
2023/10/08 02:08:12;;;;;;;15.48;4.45;;;25.60;99.90;;;;;;5034449;28;20028;-52
2023/10/08 02:10:43;;;;;;;12.02;4.78;;;25.60;99.90;;;;;;5017689;28;20025;-52
2023/10/08 02:13:10;;;;;;;7.68;4.25;;;25.60;99.90;;;;;;5052263;28;20032;-52
2023/10/08 02:15:40;;;;;;;13.00;4.60;;;25.60;99.90;;;;;;5051732;28;20385;-52
2023/10/08 02:18:06;;;;;;;11.65;3.72;;;25.60;99.90;;;;;;5051681;28;20044;-52
2023/10/08 02:20:32;;;;;;;10.05;3.33;;;25.60;99.90;;;;;;5051784;28;20033;-52
2023/10/08 02:22:59;;;;;;;6.32;3.88;;;25.50;99.90;;;;;;5051718;28;20049;-52
2023/10/08 02:25:25;;;;;;;10.00;4.07;;;25.60;99.90;;;;;;5051390;28;20488;-52
2023/10/08 02:27:52;;;;;;;7.63;4.25;;;25.50;99.90;;;;;;5051494;28;20108;-52
2023/10/08 02:30:18;;;;;;;9.73;3.83;;;25.50;99.90;;;;;;5051471;28;20413;-52
2023/10/08 02:32:44;;;;;;;11.65;4.10;;;25.50;99.90;;;;;;5051409;28;20107;-52
2023/10/08 02:35:11;;;;;;;13.07;3.90;;;25.50;99.90;;;;;;5051731;28;20373;-52
2023/10/08 02:37:40;;;;;;;6.07;4.20;;;25.50;99.90;;;;;;5051536;28;20489;-52
2023/10/08 02:40:19;;;;;;;9.80;4.00;;;25.50;99.90;;;;;;5051825;28;20049;-52
2023/10/08 02:42:48;;;;;;;6.93;3.42;;;25.40;99.90;;;;;;5051492;28;20028;-52
2023/10/08 02:45:16;;;;;;;11.60;3.97;;;25.40;99.90;;;;;;5051427;28;20013;-52
2023/10/08 02:47:46;;;;;;;8.32;3.90;;;25.40;99.90;;;;;;5051241;28;20017;-52
2023/10/08 02:50:16;;;;;;;8.82;4.63;;;25.40;99.90;;;;;;5051392;28;20440;-52
2023/10/08 02:52:44;;;;;;;7.18;3.92;;;25.40;99.90;;;;;;5051484;28;20013;-53
2023/10/08 02:55:23;;;;;;;7.32;3.63;;;25.40;99.90;;;;;;5051163;28;20021;-52
2023/10/08 02:57:50;;;;;;;8.43;3.97;;;25.40;99.90;;;;;;5051270;28;20037;-53
2023/10/08 03:02:46;;;;;;;7.90;3.97;;;25.40;99.90;;;;;;5029578;28;20443;-46
2023/10/08 03:05:16;;;;;;;8.90;4.25;;;25.30;99.90;;;;;;5028851;28;20018;-47
2023/10/08 03:07:42;;;;;;;11.63;3.90;;;25.40;99.90;;;;;;5036312;28;20025;-46
2023/10/08 03:10:18;;;;;;;8.25;3.90;;;25.30;99.90;;;;;;5035399;28;20393;-47
2023/10/08 03:12:46;;;;;;;9.90;3.85;;;25.30;99.90;;;;;;5011561;28;20025;-46
2023/10/08 03:15:14;;;;;;;7.18;4.10;;;25.30;99.90;;;;;;5035147;28;20021;-46
2023/10/08 03:17:48;;;;;;;13.65;4.90;;;25.40;99.90;;;;;;5014925;28;20037;-47
2023/10/08 03:20:38;;;;;;;9.20;4.20;;;25.30;99.90;;;;;;5036831;28;20105;-47
2023/10/08 03:23:23;;;;;;;11.18;3.80;;;25.30;99.90;;;;;;5035347;28;20029;-46
2023/10/08 03:26:28;;;;;;;9.75;4.18;;;25.30;99.90;;;;;;5034823;28;20037;-47
2023/10/08 03:28:57;;;;;;;7.43;4.13;;;25.30;99.90;;;;;;5045978;28;20063;-47
2023/10/08 03:31:44;;;;;;;12.10;4.05;;;25.20;99.90;;;;;;5034853;28;20017;-50
2023/10/08 03:34:13;;;;;;;13.23;4.43;;;25.20;99.90;;;;;;5027925;28;20025;-47
2023/10/08 03:36:44;;;;;;;8.10;3.70;;;25.20;99.90;;;;;;5035079;28;20497;-46
2023/10/08 03:39:18;;;;;;;15.23;4.53;;;25.20;99.90;;;;;;5034895;28;20044;-47
2023/10/08 03:44:29;;;;;;;9.50;4.53;;;25.10;99.90;;;;;;5034668;28;20037;-47
2023/10/08 03:46:57;;;;;;;7.78;3.88;;;25.10;99.90;;;;;;5034626;28;20022;-47
2023/10/08 03:51:51;;;;;;;7.03;4.30;;;25.10;99.90;;;;;;5028294;28;20421;-46
2023/10/08 03:54:29;;;;;;;20.10;4.07;;;25.10;99.90;;;;;;5020985;28;20030;-47
2023/10/08 03:56:56;;;;;;;7.55;3.58;;;25.10;99.90;;;;;;5007908;28;20025;-46
2023/10/08 03:59:40;;;;;;;7.53;3.40;;;25.10;99.90;;;;;;5022834;28;20041;-46
2023/10/08 04:02:24;;;;;;;10.32;3.45;;;25.10;99.90;;;;;;5049238;28;20120;-46
2023/10/08 04:04:56;;;;;;;11.00;4.32;;;25.10;99.90;;;;;;5054179;28;20392;-47
2023/10/08 04:12:35;;;;;;;8.02;3.63;;;25.10;99.90;;;;;;5054429;28;20130;-47
2023/10/08 04:15:07;;;;;;;6.07;3.83;;;25.10;99.90;;;;;;5042355;28;20849;-46
2023/10/08 04:17:43;;;;;;;10.98;4.63;;;25.10;99.90;;;;;;5032147;28;20025;-47
2023/10/08 04:23:20;;;;;;;7.60;3.20;;;25.10;99.90;;;;;;5047325;28;20037;-46
2023/10/08 04:25:50;;;;;;;13.30;3.30;;;25.10;99.90;;;;;;5047700;28;20021;-47
2023/10/08 04:28:20;;;;;;;7.00;3.33;;;25.20;99.90;;;;;;5053973;28;20067;-46
2023/10/08 04:30:53;;;;;;;9.45;3.40;;;25.20;99.90;;;;;;5040510;28;20072;-46
2023/10/08 04:33:19;;;;;;;8.38;3.10;;;25.20;99.90;;;;;;5045466;28;20033;-46
2023/10/08 04:35:48;;;;;;;9.52;3.55;;;25.20;99.90;;;;;;5051616;28;20024;-46
2023/10/08 04:38:23;;;;;;;9.32;4.18;;;25.20;99.90;;;;;;5029118;28;20116;-46
2023/10/08 04:40:53;;;;;;;7.88;3.70;;;25.20;99.90;;;;;;5052527;28;20075;-46
2023/10/08 04:43:25;;;;;;;9.05;3.17;;;25.30;99.90;;;;;;5052741;28;20055;-46
2023/10/08 04:45:56;;;;;;;12.20;5.47;;;25.30;99.90;;;;;;5046974;28;20032;-46
2023/10/08 04:48:29;;;;;;;11.68;6.32;;;25.30;99.90;;;;;;5051537;28;20024;-46
2023/10/08 04:50:58;;;;;;;17.25;6.45;;;25.30;99.90;;;;;;5048229;28;20397;-46
2023/10/08 04:53:40;;;;;;;11.45;4.22;;;25.30;99.90;;;;;;5037960;28;20025;-47
2023/10/08 04:56:17;;;;;;;8.32;3.80;;;25.30;99.90;;;;;;5040891;28;20462;-46
2023/10/08 04:58:48;;;;;;;8.13;3.63;;;25.30;99.90;;;;;;5041330;28;20112;-46
2023/10/08 05:01:18;;;;;;;8.27;3.80;;;25.30;99.90;;;;;;5046829;28;20051;-46
2023/10/08 05:09:10;;;;;;;9.43;3.67;;;25.30;99.90;;;;;;5049263;28;20029;-47
2023/10/08 05:14:34;;;;;;;7.38;3.88;;;25.40;99.90;;;;;;5052849;28;20433;-47
2023/10/08 05:17:22;;;;;;;7.60;3.28;;;25.30;99.90;;;;;;5053997;28;20021;-47
2023/10/08 05:25:11;;;;;;;8.18;3.80;;;25.30;99.90;;;;;;5052630;28;20028;-46
2023/10/08 05:28:46;;;;;;;13.20;3.85;;;25.30;99.90;;;;;;5050083;28;20466;-47
2023/10/08 05:38:22;;;;;;;9.30;3.50;;;25.30;99.90;;;;;;5052669;28;20130;-46
2023/10/08 05:49:15;;;;;;;7.88;3.10;;;25.30;99.90;;;;;;5042832;28;20029;-47
2023/10/08 06:13:09;;;;;;;9.13;3.03;;;25.30;99.90;;;;;;5052126;28;20017;-47
2023/10/08 06:18:26;;;;;;;5.68;3.63;;;25.30;99.90;;;;;;5057218;28;20109;-47
2023/10/08 06:20:58;;;;;;;9.10;3.58;;;25.20;99.90;;;;;;5054436;28;20021;-47
2023/10/08 06:23:25;;;;;;;17.58;4.47;;;25.20;99.90;;;;;;5051760;28;20032;-47
2023/10/08 06:26:05;;;;;;;10.98;4.15;;;25.20;99.90;;;;;;5037535;28;20028;-47
2023/10/08 06:28:34;;;;;;;11.13;4.18;;;25.20;99.90;;;;;;5051501;28;20424;-47
2023/10/08 06:31:03;;;;;;;9.90;3.90;;;25.20;99.90;;;;;;5048698;28;20025;-46
2023/10/08 06:33:33;;;;;;;12.10;3.75;;;25.20;99.90;;;;;;5039165;28;20489;-47
2023/10/08 06:36:02;;;;;;;6.63;3.58;;;25.20;99.90;;;;;;5051547;28;20064;-47
2023/10/08 06:38:36;;;;;;;7.82;3.58;;;25.20;99.90;;;;;;5045166;28;20044;-47
2023/10/08 06:41:37;;;;;;;10.57;4.13;;;25.20;99.90;;;;;;5072092;28;20116;-47
2023/10/08 06:44:14;;;;;;;9.98;4.35;;;25.20;99.90;;;;;;5036583;28;20374;-47
2023/10/08 06:46:40;;;;;;;10.77;4.18;;;25.20;99.90;;;;;;5055703;28;20014;-47
2023/10/08 06:49:11;;;;;;;10.15;4.28;;;25.20;99.90;;;;;;5055454;28;20079;-47
2023/10/08 06:51:38;;;;;;;12.07;4.05;;;25.30;99.90;;;;;;5045456;28;20025;-46
2023/10/08 06:54:04;;;;;;;14.03;4.13;;;25.20;99.90;;;;;;5055636;28;20021;-47
2023/10/08 06:56:31;;;;;;;15.95;5.43;;;25.30;99.90;;;;;;5058753;28;20386;-47
2023/10/08 06:58:58;;;;;;;10.55;4.60;;;25.30;99.90;;;;;;5055473;28;20033;-47
2023/10/08 07:01:24;;;;;;;;;;;25.30;99.90;;;;;;5040488;28;20125;-47
2023/10/08 07:04:03;;;;;;;12.98;4.15;;;25.30;99.90;;;;;;5035395;28;20004;-47
2023/10/08 07:06:33;;;;;;;18.17;4.53;;;25.30;99.90;;;;;;5035032;28;20029;-46
2023/10/08 07:09:04;;;;;;;12.52;4.35;;;25.30;99.90;;;;;;5035297;28;20021;-46
2023/10/08 07:11:34;;;;;;;13.70;4.32;;;25.40;99.90;;;;;;5017637;28;20032;-46
2023/10/08 07:14:04;;;;;;;14.60;4.03;;;25.40;99.90;;;;;;5009174;28;20812;-47
2023/10/08 07:16:30;;;;;;;11.45;4.32;;;25.40;99.90;;;;;;5035203;28;20025;-47
2023/10/08 07:19:05;;;;;;;10.77;3.73;;;25.40;99.90;;;;;;5035025;28;20033;-47
2023/10/08 07:21:44;;;;;;;6.90;3.28;;;25.40;99.90;;;;;;5035217;28;20022;-48
2023/10/08 07:24:21;;;;;;;11.15;4.05;;;25.40;99.90;;;;;;5034812;28;20469;-47
2023/10/08 07:26:49;;;;;;;16.65;3.55;;;25.50;99.90;;;;;;5034972;28;20032;-47
2023/10/08 07:29:19;;;;;;;6.78;3.60;;;25.50;99.90;;;;;;5034499;28;20021;-47
2023/10/08 07:31:52;;;;;;;12.32;4.07;;;25.50;99.90;;;;;;5034557;28;20095;-47
2023/10/08 07:34:18;;;;;;;6.88;3.80;;;25.50;99.90;;;;;;5034652;28;20060;-47
2023/10/08 07:36:49;;;;;;;8.88;3.25;;;25.60;99.90;;;;;;5038819;28;20030;-47
2023/10/08 07:41:58;;;;;;;8.00;3.72;;;25.60;99.90;;;;;;5035251;28;20053;-47
2023/10/08 07:44:28;;;;;;;6.97;3.17;;;25.60;99.90;;;;;;5034547;28;20036;-48
2023/10/08 07:46:54;;;;;;;7.20;3.88;;;25.60;99.90;;;;;;5034718;28;20022;-47
2023/10/08 07:49:20;;;;;;;8.05;3.55;;;25.70;99.90;;;;;;5034596;28;20453;-48
2023/10/08 07:51:52;;;;;;;9.00;3.45;;;25.80;99.90;;;;;;5032917;28;20481;-47
2023/10/08 07:54:23;;;;;;;10.40;3.90;;;25.80;99.90;;;;;;5034040;28;20072;-47
2023/10/08 07:56:51;;;;;;;7.05;3.60;;;25.80;99.90;;;;;;5034273;28;20028;-48
2023/10/08 07:59:17;;;;;;;11.98;3.95;;;25.90;99.90;;;;;;5034327;28;20037;-47
2023/10/08 08:01:43;;;;;;;6.93;3.55;;;25.90;99.90;;;;;;5034314;28;20385;-47
2023/10/08 08:04:22;;;;;;;9.35;3.55;;;25.90;99.90;;;;;;5034381;28;20477;-48
2023/10/08 08:06:52;;;;;;;9.38;3.65;;;26.00;99.90;;;;;;5034102;28;20029;-47
2023/10/08 08:09:19;;;;;;;12.57;3.80;;;26.10;99.90;;;;;;5034191;28;20021;-47
2023/10/08 08:11:46;;;;;;;6.07;3.30;;;26.10;99.90;;;;;;5034226;28;20470;-47
2023/10/08 08:14:24;;;;;;;7.68;3.35;;;26.20;99.90;;;;;;5033985;28;20031;-48
2023/10/08 08:16:50;;;;;;;8.00;3.72;;;26.20;99.90;;;;;;5033901;28;20025;-48
2023/10/08 08:19:24;;;;;;;13.48;4.07;;;26.20;99.90;;;;;;5033326;28;20070;-48
2023/10/08 08:21:52;;;;;;;9.48;3.55;;;26.30;99.90;;;;;;5032974;28;20528;-48
2023/10/08 08:24:28;;;;;;;6.88;3.72;;;26.40;99.90;;;;;;5031518;28;20445;-48
2023/10/08 08:27:23;;;;;;;10.23;4.05;;;26.40;99.90;;;;;;5033630;28;20079;-48
2023/10/08 08:29:55;;;;;;;6.40;4.05;;;26.50;99.90;;;;;;5014912;28;20032;-47
2023/10/08 08:32:23;;;;;;;10.60;3.72;;;26.50;99.90;;;;;;5033802;28;20013;-48
2023/10/08 08:34:52;;;;;;;6.55;3.70;;;26.60;99.90;;;;;;5020086;28;20025;-48
2023/10/08 08:37:18;;;;;;;5.90;3.78;;;26.60;99.90;;;;;;5033460;28;20201;-48
2023/10/08 08:39:45;;;;;;;5.45;3.38;;;26.70;99.90;;;;;;5032873;28;20027;-47
2023/10/08 08:42:11;;;;;;;9.98;3.90;;;26.70;99.90;;;;;;5032287;28;20025;-48
2023/10/08 08:44:45;;;;;;;4.78;3.10;;;26.80;99.90;;;;;;5032678;28;20037;-47
2023/10/08 08:47:18;;;;;;;8.95;4.20;;;26.90;99.90;;;;;;5033253;28;20355;-46
2023/10/08 08:49:48;;;;;;;8.90;4.30;;;27.00;99.90;;;;;;5032855;28;20033;-46
2023/10/08 08:52:14;;;;;;;8.80;3.53;;;27.00;99.90;;;;;;5033142;28;20033;-46
2023/10/08 08:54:42;;;;;;;10.75;3.80;;;27.00;99.90;;;;;;5033266;28;20032;-46
2023/10/08 08:57:13;;;;;;;9.20;3.38;;;27.10;99.90;;;;;;5033539;28;20049;-47
2023/10/08 08:59:50;;;;;;;8.75;3.30;;;27.20;99.90;;;;;;5033451;28;20038;-48
2023/10/08 09:02:17;;;;;;;13.25;3.85;;;27.30;99.90;;;;;;5032471;28;20053;-47
2023/10/08 09:04:45;;;;;;;9.23;4.65;;;27.30;99.90;;;;;;5032387;28;20067;-54
2023/10/08 09:07:12;;;;;;;7.95;3.47;;;27.40;99.90;;;;;;5033235;28;20018;-55
2023/10/08 09:09:39;;;;;;;8.90;3.90;;;27.40;99.90;;;;;;5033476;28;20128;-47
2023/10/08 09:12:07;;;;;;;8.52;3.53;;;27.50;99.90;;;;;;5027458;28;20025;-47
2023/10/08 09:14:33;;;;;;;9.50;3.70;;;27.60;99.90;;;;;;5032728;28;20033;-46
2023/10/08 09:17:05;;;;;;;7.78;3.05;;;27.60;99.90;;;;;;5015234;28;20029;-45
2023/10/08 09:19:37;;;;;;;6.25;3.17;;;27.70;99.90;;;;;;5032996;28;20047;-46
2023/10/08 09:22:11;;;;;;;6.45;3.33;;;27.70;99.90;;;;;;5015120;28;20026;-46
2023/10/08 09:24:40;;;;;;;4.45;2.75;;;27.80;99.90;;;;;;5027368;28;20017;-46
2023/10/08 09:27:15;;;;;;;6.93;3.47;;;27.80;99.90;;;;;;5032879;28;20088;-46
2023/10/08 09:29:41;;;;;;;5.47;3.05;;;27.90;99.90;;;;;;5032771;28;20504;-46
2023/10/08 09:32:14;;;;;;;7.75;3.45;;;27.90;99.90;;;;;;5015299;28;20024;-47
2023/10/08 09:34:40;;;;;;;6.10;3.10;;;28.00;99.90;;;;;;5032917;28;20029;-47
2023/10/08 09:37:09;;;;;;;6.68;3.25;;;28.00;99.90;;;;;;5032542;28;20355;-47
2023/10/08 09:39:38;;;;;;;6.85;2.78;;;28.10;99.90;;;;;;5032386;28;20435;-47
2023/10/08 09:42:11;;;;;;;11.00;4.32;;;28.10;99.90;;;;;;5032534;28;20026;-46
2023/10/08 09:44:37;;;;;;;12.02;3.80;;;28.20;99.90;;;;;;5032684;28;20052;-46
2023/10/08 09:47:05;;;;;;;9.57;3.30;;;28.20;99.90;;;;;;5032575;28;20466;-46
2023/10/08 09:49:32;;;;;;;7.25;3.22;;;28.20;99.90;;;;;;5032465;28;20029;-45
2023/10/08 09:52:05;;;;;;;7.90;3.28;;;28.30;99.90;;;;;;5032378;28;20018;-44
2023/10/08 09:55:10;;;;;;;10.30;3.63;;;28.30;99.90;;;;;;5032085;28;20029;-45
2023/10/08 09:57:36;;;;;;;7.93;3.67;;;28.30;99.90;;;;;;4970895;28;20027;-46
2023/10/08 10:00:14;;;;;;;9.07;4.07;;;28.50;99.90;;;;;;5016549;28;20072;-46
2023/10/08 10:02:43;;;;;;;7.20;3.10;;;28.50;99.90;;;;;;5051318;28;20120;-46
2023/10/08 10:05:12;;;;;;;8.82;3.58;;;28.50;99.90;;;;;;5052027;28;20055;-47
2023/10/08 10:07:41;;;;;;;6.93;3.05;;;28.60;99.90;;;;;;5052220;28;20017;-46
2023/10/08 10:10:30;;;;;;;5.00;3.10;;;28.60;99.90;;;;;;5052092;28;20013;-47
2023/10/08 10:13:11;;;;;;;7.82;3.45;;;28.70;99.90;;;;;;5051913;28;20438;-46
2023/10/08 10:15:42;;;;;;;7.75;2.97;;;28.70;99.90;;;;;;5057166;28;20024;-47
2023/10/08 10:18:29;;;;;;;9.43;3.80;;;28.80;99.90;;;;;;5050080;28;20037;-46
2023/10/08 10:21:12;;;;;;;10.77;3.72;;;28.90;99.90;;;;;;5052344;28;20094;-46
2023/10/08 10:23:42;;;;;;;7.78;3.25;;;28.90;99.90;;;;;;5050228;28;20311;-46
2023/10/08 10:26:26;;;;;;;9.73;3.45;;;29.00;99.90;;;;;;5047594;28;20033;-46
2023/10/08 10:29:10;;;;;;;8.68;3.63;;;29.10;99.90;;;;;;5054455;28;20029;-45
2023/10/08 10:31:38;;;;;;;9.25;3.85;;;29.10;99.90;;;;;;5050917;28;20029;-46
2023/10/08 10:34:12;;;;;;;10.70;3.75;;;29.10;99.90;;;;;;5049992;28;20175;-47
2023/10/08 10:36:43;;;;;;;8.18;3.63;;;29.10;99.90;;;;;;5044415;28;20411;-46
2023/10/08 10:39:34;;;;;;;8.38;3.42;;;29.00;99.90;;;;;;5051858;28;20184;-46
2023/10/08 10:42:01;;;;;;;6.38;2.97;;;29.00;99.90;;;;;;5051080;28;20112;-47
2023/10/08 10:44:29;;;;;;;8.10;4.20;;;29.00;99.90;;;;;;5051559;28;20020;-47
2023/10/08 10:49:52;;;;;;;10.80;4.20;;;29.00;99.90;;;;;;5051622;28;20048;-45
2023/10/08 10:52:44;;;;;;;16.70;3.83;;;29.00;99.90;;;;;;5040529;28;20057;-51
2023/10/08 10:58:03;;;;;;;7.15;3.63;;;29.10;99.90;;;;;;5060636;28;20035;-53
2023/10/08 11:03:02;;;;;;;12.05;3.95;;;29.10;99.90;;;;;;5051515;28;20064;-54
2023/10/08 11:05:29;;;;;;;7.07;4.10;;;29.10;99.90;;;;;;5051266;28;20021;-54
2023/10/08 11:08:06;;;;;;;11.07;4.85;;;29.10;99.90;;;;;;5051399;28;20075;-55
2023/10/08 11:10:51;;;;;;;11.77;5.28;;;29.00;99.90;;;;;;5051167;28;20035;-54
2023/10/08 11:13:20;;;;;;;14.15;4.20;;;28.90;99.90;;;;;;5051149;28;20028;-56
2023/10/08 11:15:51;;;;;;;14.43;5.00;;;28.90;99.90;;;;;;5051221;28;20024;-47
2023/10/08 11:18:27;;;;;;;10.82;5.18;;;28.80;99.90;;;;;;5045639;28;20119;-47
2023/10/08 11:21:02;;;;;;;12.15;4.93;;;28.90;99.90;;;;;;5047508;28;20022;-47
2023/10/08 11:23:36;;;;;;;10.63;5.15;;;28.90;99.90;;;;;;5055503;28;20021;-47
2023/10/08 11:26:05;;;;;;;16.65;5.05;;;28.90;99.90;;;;;;5055869;28;20025;-47
2023/10/08 11:28:49;;;;;;;10.20;5.45;;;28.90;99.90;;;;;;5064164;28;20040;-48
2023/10/08 11:31:19;;;;;;;18.67;8.10;;;28.90;99.90;;;;;;5037075;28;20025;-49
2023/10/08 11:33:53;;;;;;;12.80;5.03;;;28.90;99.90;;;;;;5046211;28;20079;-48
2023/10/08 11:36:30;;;;;;;15.90;5.65;;;28.80;99.90;;;;;;5054779;28;20100;-47
2023/10/08 11:39:07;;;;;;;13.32;6.05;;;28.80;99.90;;;;;;5054841;28;20385;-47
2023/10/08 11:41:49;;;;;;;13.23;5.72;;;28.80;99.90;;;;;;5054725;28;20029;-47
2023/10/08 11:44:19;;;;;;;10.93;5.93;;;28.80;99.90;;;;;;5057092;28;20401;-48
2023/10/08 11:46:47;;;;;;;10.52;6.13;;;28.80;99.90;;;;;;5038219;28;20093;-48
2023/10/08 11:49:25;;;;;;;10.18;5.15;;;28.80;99.90;;;;;;5034630;28;20025;-48
2023/10/08 11:51:55;;;;;;;11.30;5.97;;;28.80;99.90;;;;;;5043845;28;20031;-55
2023/10/08 11:54:23;;;;;;;15.52;5.80;;;28.80;99.90;;;;;;5054530;28;20039;-56
2023/10/08 11:56:50;;;;;;;9.20;4.93;;;28.80;99.90;;;;;;5059240;28;20025;-47
2023/10/08 11:59:18;;;;;;;10.10;5.30;;;28.80;99.90;;;;;;5054208;28;20043;-46
2023/10/08 12:01:44;;;;;;;12.55;6.10;;;28.90;99.90;;;;;;5062648;28;20044;-49
2023/10/08 12:04:16;;;;;;;10.30;5.28;;;29.00;99.90;;;;;;5054516;28;20033;-46
2023/10/08 12:06:51;;;;;;;14.60;6.28;;;29.00;99.90;;;;;;5053989;28;20112;-46
2023/10/08 12:09:21;;;;;;;9.70;5.45;;;29.00;99.90;;;;;;5042544;28;20028;-47
2023/10/08 12:11:48;;;;;;;8.82;5.90;;;29.00;99.90;;;;;;5054713;28;20021;-47
2023/10/08 12:14:14;;;;;;;13.77;5.93;;;29.10;99.90;;;;;;5034308;28;20362;-46
2023/10/08 12:16:41;;;;;;;9.40;5.10;;;29.20;99.90;;;;;;5054489;28;20028;-45
2023/10/08 12:19:16;;;;;;;13.88;6.32;;;29.20;99.90;;;;;;5054099;28;20545;-47
2023/10/08 12:21:49;;;;;;;12.32;5.82;;;29.20;99.90;;;;;;5054084;28;20025;-46
2023/10/08 12:24:15;;;;;;;11.52;5.03;;;29.30;99.90;;;;;;5053831;28;20028;-46
2023/10/08 12:26:45;;;;;;;11.32;4.22;;;29.40;99.90;;;;;;5036361;28;20025;-46
2023/10/08 12:29:14;;;;;;;11.52;4.78;;;29.40;99.90;;;;;;5053925;28;20024;-46
2023/10/08 12:31:40;;;;;;;8.73;5.13;;;29.50;99.90;;;;;;5053936;28;20029;-47
2023/10/08 12:34:06;;;;;;;14.90;4.75;;;29.50;99.90;;;;;;5053685;28;20025;-47
2023/10/08 12:36:36;;;;;;;13.23;5.43;;;29.60;99.90;;;;;;5052628;28;20359;-47
2023/10/08 12:39:09;;;;;;;8.23;4.60;;;29.70;99.90;;;;;;5053592;28;20140;-48
2023/10/08 12:41:38;;;;;;;9.98;4.60;;;29.80;99.90;;;;;;5053451;28;20017;-49
2023/10/08 12:44:07;;;;;;;11.13;5.00;;;29.80;99.90;;;;;;5037588;28;20068;-47
2023/10/08 12:46:33;;;;;;;10.15;5.22;;;29.80;99.90;;;;;;5049552;28;20029;-45
2023/10/08 12:49:01;;;;;;;9.10;4.47;;;29.90;99.90;;;;;;5045186;28;20095;-47
2023/10/08 12:51:31;;;;;;;12.02;5.53;;;30.00;99.90;;;;;;5045053;28;20021;-47
2023/10/08 12:53:58;;;;;;;9.50;4.18;;;30.00;99.90;;;;;;5048805;28;20108;-47
2023/10/08 12:56:31;;;;;;;9.88;5.03;;;30.10;99.90;;;;;;5036341;28;20026;-48
2023/10/08 12:58:58;;;;;;;13.00;4.22;;;30.20;99.90;;;;;;5049366;28;20044;-47
2023/10/08 13:01:28;;;;;;;11.75;5.70;;;30.20;99.90;;;;;;5053454;28;20042;-47
2023/10/08 13:04:06;;;;;;;7.30;4.30;;;30.20;99.90;;;;;;5055679;28;20524;-47
2023/10/08 13:06:37;;;;;;;13.18;5.10;;;30.20;99.90;;;;;;5052913;28;20079;-46
2023/10/08 13:09:09;;;;;;;12.00;4.80;;;30.10;99.90;;;;;;5053000;28;20485;-48
2023/10/08 13:11:38;;;;;;;10.68;5.55;;;30.10;99.90;;;;;;5053110;28;20029;-47
2023/10/08 13:14:05;;;;;;;15.50;5.60;;;30.10;99.90;;;;;;5045224;28;20029;-47
2023/10/08 13:16:31;;;;;;;12.13;4.78;;;30.10;99.90;;;;;;5052938;28;20033;-47
2023/10/08 13:18:58;;;;;;;12.40;4.65;;;30.10;99.90;;;;;;5052495;28;20160;-47
2023/10/08 13:21:28;;;;;;;10.20;4.68;;;30.20;99.90;;;;;;5052623;28;20470;-47
2023/10/08 13:23:59;;;;;;;6.53;4.53;;;30.20;99.90;;;;;;5035078;28;20397;-46
2023/10/08 13:26:30;;;;;;;8.85;4.22;;;30.20;99.90;;;;;;5052693;28;20055;-46
2023/10/08 13:28:57;;;;;;;9.27;4.40;;;30.20;99.90;;;;;;5052671;28;20021;-47
2023/10/08 13:31:23;;;;;;;9.38;4.10;;;30.30;99.90;;;;;;5052484;28;20018;-47
2023/10/08 13:33:49;;;;;;;10.30;4.43;;;30.20;99.90;;;;;;5052527;28;20033;-47
2023/10/08 13:36:16;;;;;;;10.85;5.10;;;30.20;99.90;;;;;;5043447;28;20024;-54
2023/10/08 13:38:43;;;;;;;10.30;4.75;;;30.20;99.90;;;;;;5050100;28;20405;-50
2023/10/08 13:41:14;;;;;;;11.48;4.57;;;30.20;99.90;;;;;;5034725;28;20044;-55
2023/10/08 13:44:01;;;;;;;11.93;4.65;;;30.30;99.90;;;;;;5035059;28;20424;-50
2023/10/08 13:46:27;;;;;;;;;;;30.30;99.90;;;;;;5053109;28;20361;-52
2023/10/08 13:48:53;;;;;;;10.18;4.90;;;30.30;99.90;;;;;;5051975;28;19912;-53
2023/10/08 13:51:25;;;;;;;9.60;4.82;;;30.30;99.90;;;;;;5052178;28;20021;-52
2023/10/08 13:54:17;;;;;;;8.60;4.93;;;30.30;99.90;;;;;;5052978;28;20083;-48
2023/10/08 13:56:47;;;;;;;12.80;5.07;;;30.30;99.90;;;;;;5051782;28;20037;-47
2023/10/08 13:59:14;;;;;;;11.20;4.28;;;30.30;99.90;;;;;;5043034;28;20504;-47
2023/10/08 14:01:46;;;;;;;9.65;4.65;;;30.30;99.90;;;;;;5059597;28;20112;-47
2023/10/08 14:04:17;;;;;;;9.10;4.25;;;30.30;99.90;;;;;;5051944;28;20032;-47
2023/10/08 14:06:47;;;;;;;14.27;4.20;;;30.30;99.90;;;;;;5051907;28;20029;-46
2023/10/08 14:09:20;;;;;;;8.15;4.43;;;30.30;99.90;;;;;;5033760;28;20025;-46
2023/10/08 14:11:47;;;;;;;10.07;4.22;;;30.40;99.90;;;;;;5051803;28;20500;-46
2023/10/08 14:14:16;;;;;;;11.18;4.55;;;30.40;99.90;;;;;;5047222;28;20017;-47
2023/10/08 14:16:42;;;;;;;8.27;3.85;;;30.40;99.90;;;;;;5049506;28;20036;-47
2023/10/08 14:19:12;;;;;;;17.95;4.80;;;30.40;99.90;;;;;;5051531;28;20028;-47
2023/10/08 14:21:49;;;;;;;8.80;4.30;;;30.50;99.90;;;;;;5051672;28;20017;-46
2023/10/08 14:24:16;;;;;;;10.65;5.13;;;30.50;99.90;;;;;;5051566;28;20021;-47
2023/10/08 14:26:43;;;;;;;;;;;30.40;99.90;;;;;;5052199;28;20017;-46
2023/10/08 14:29:14;;;;;;;9.93;4.07;;;30.40;99.90;;;;;;5051756;28;20365;-47
2023/10/08 14:31:42;;;;;;;10.85;5.20;;;30.50;99.90;;;;;;5051609;28;20024;-47
2023/10/08 14:45:02;;;;;;;10.50;4.45;;;30.50;99.90;;;;;;5051588;28;20067;-46
2023/10/08 14:47:28;;;;;;;11.23;4.30;;;30.50;99.90;;;;;;5033832;28;20021;-46
2023/10/08 14:49:54;;;;;;;9.07;4.20;;;30.50;99.90;;;;;;5051421;28;20017;-47
2023/10/08 14:52:20;;;;;;;5.53;3.92;;;30.40;99.90;;;;;;5051519;28;20017;-47